Time;durP1;ratioP1;P1;durP2;ratioP2;P2;SDS_P1;SDS_P2;PMS_P1;PMS_P2;Temp;Humidity;BMP_temperature;BMP_pressure;BME280_temperature;BME280_humidity;BME280_pressure;Samples;Min_cycle;Max_cycle;Signal;HPM_P1;HPM_P2
2021/11/19 00:02:15;;;;;;;2.35;0.85;;;19.60;99.90;;;;;;4984743;28;20046;-81
2021/11/19 00:04:42;;;;;;;1.02;1.00;;;19.60;99.90;;;;;;4975191;28;20418;-83
2021/11/19 00:07:08;;;;;;;1.73;1.15;;;19.60;99.90;;;;;;4990517;28;20046;-82
2021/11/19 00:09:36;;;;;;;1.63;1.13;;;19.60;99.90;;;;;;4997872;28;20081;-82
2021/11/19 00:12:02;;;;;;;1.08;1.00;;;19.60;99.90;;;;;;4993374;28;20107;-81
2021/11/19 00:14:28;;;;;;;1.27;0.90;;;19.60;99.90;;;;;;4980375;28;20121;-82
2021/11/19 00:17:00;;;;;;;1.50;0.90;;;19.60;99.90;;;;;;5012147;28;20042;-82
2021/11/19 00:19:27;;;;;;;1.33;0.90;;;19.60;99.90;;;;;;5011998;28;20469;-82
2021/11/19 00:21:53;;;;;;;1.30;0.93;;;19.50;99.90;;;;;;5012123;28;20068;-81
2021/11/19 00:24:19;;;;;;;0.75;0.75;;;19.60;99.90;;;;;;4999426;28;20097;-82
2021/11/19 00:26:46;;;;;;;3.22;1.05;;;19.60;99.90;;;;;;4994452;28;20054;-81
2021/11/19 00:29:12;;;;;;;1.67;0.90;;;19.50;99.90;;;;;;4993789;28;20133;-82
2021/11/19 00:31:39;;;;;;;1.30;0.90;;;19.50;99.90;;;;;;5007264;28;20038;-81
2021/11/19 00:34:05;;;;;;;2.35;0.90;;;19.50;99.90;;;;;;4997434;28;20104;-81
2021/11/19 00:36:33;;;;;;;1.15;0.90;;;19.50;99.90;;;;;;5009940;28;20058;-82
2021/11/19 00:39:01;;;;;;;1.48;1.13;;;19.50;99.90;;;;;;5011762;28;20725;-81
2021/11/19 00:41:28;;;;;;;1.85;1.10;;;19.50;99.90;;;;;;4993892;28;20064;-80
2021/11/19 00:43:54;;;;;;;0.98;0.90;;;19.50;99.90;;;;;;5011655;28;20046;-80
2021/11/19 00:46:20;;;;;;;1.00;0.90;;;19.50;99.90;;;;;;5007086;28;20042;-81
2021/11/19 00:48:47;;;;;;;1.35;1.00;;;19.50;99.90;;;;;;5010647;28;20092;-80
2021/11/19 00:51:23;;;;;;;2.35;0.80;;;19.50;99.90;;;;;;5010951;28;20042;-81
2021/11/19 00:53:51;;;;;;;1.42;0.68;;;19.50;99.90;;;;;;4994080;28;20080;-81
2021/11/19 00:56:20;;;;;;;1.80;1.20;;;19.50;99.90;;;;;;5007639;28;20121;-81
2021/11/19 00:58:48;;;;;;;2.58;0.95;;;19.50;99.90;;;;;;5010579;28;20085;-82
2021/11/19 01:01:18;;;;;;;1.90;0.73;;;19.50;99.90;;;;;;4998633;28;20046;-82
2021/11/19 01:03:44;;;;;;;1.52;1.10;;;19.50;99.90;;;;;;5011181;28;20046;-82
2021/11/19 01:06:10;;;;;;;1.95;1.00;;;19.50;99.90;;;;;;5010140;28;20050;-80
2021/11/19 01:08:37;;;;;;;1.38;1.00;;;19.50;99.90;;;;;;4993470;28;20049;-82
2021/11/19 01:11:06;;;;;;;1.42;0.90;;;19.50;99.90;;;;;;5011071;28;20050;-81
2021/11/19 01:13:35;;;;;;;1.35;0.75;;;19.50;99.90;;;;;;5011008;28;20405;-81
2021/11/19 01:16:06;;;;;;;1.30;0.80;;;19.50;99.90;;;;;;5010920;28;20040;-81
2021/11/19 01:18:40;;;;;;;0.88;0.85;;;19.50;99.90;;;;;;5010508;28;20563;-82
2021/11/19 01:21:16;;;;;;;0.88;0.80;;;19.50;99.90;;;;;;4993022;28;20077;-86
2021/11/19 01:23:43;;;;;;;1.40;1.00;;;19.50;99.90;;;;;;4989994;28;20437;-82
2021/11/19 01:26:20;;;;;;;0.70;0.60;;;19.50;99.90;;;;;;5009000;28;20049;-82
2021/11/19 01:28:48;;;;;;;0.70;0.70;;;19.50;99.90;;;;;;5010826;28;20045;-82
2021/11/19 01:31:18;;;;;;;0.65;0.65;;;19.40;99.90;;;;;;4989003;28;20050;-82
2021/11/19 01:33:45;;;;;;;0.98;0.80;;;19.50;99.90;;;;;;5003625;28;20078;-82
2021/11/19 01:36:12;;;;;;;1.33;0.50;;;19.40;99.90;;;;;;5003006;28;20050;-82
2021/11/19 01:38:40;;;;;;;0.77;0.77;;;19.40;99.90;;;;;;4993105;28;20056;-82
2021/11/19 01:41:17;;;;;;;1.33;1.00;;;19.40;99.90;;;;;;4993335;28;20058;-84
2021/11/19 01:43:44;;;;;;;0.75;0.60;;;19.40;99.90;;;;;;5007094;28;20176;-82
2021/11/19 01:46:13;;;;;;;1.15;0.98;;;19.40;99.90;;;;;;4992244;28;20042;-81
2021/11/19 01:48:42;;;;;;;2.05;0.70;;;19.40;99.90;;;;;;4990218;28;20082;-83
2021/11/19 01:51:26;;;;;;;1.02;0.90;;;19.40;99.90;;;;;;4989837;28;20391;-83
2021/11/19 01:54:13;;;;;;;1.60;0.75;;;19.40;99.90;;;;;;4989192;28;20139;-81
2021/11/19 01:56:47;;;;;;;1.10;0.75;;;19.40;99.90;;;;;;4987263;28;20042;-80
2021/11/19 01:59:37;;;;;;;1.10;0.80;;;19.40;99.90;;;;;;4976905;28;20042;-82
2021/11/19 02:02:08;;;;;;;0.80;0.80;;;19.40;99.90;;;;;;4973828;28;20136;-83
2021/11/19 02:04:43;;;;;;;1.80;0.70;;;19.40;99.90;;;;;;4972755;28;20046;-81
2021/11/19 02:07:18;;;;;;;0.52;0.52;;;19.40;99.90;;;;;;4990004;28;20399;-85
2021/11/19 02:09:54;;;;;;;1.58;0.80;;;19.40;99.90;;;;;;4998163;28;20408;-80
2021/11/19 02:12:48;;;;;;;0.70;0.70;;;19.40;99.90;;;;;;4984118;28;20050;-80
2021/11/19 02:15:22;;;;;;;1.05;0.70;;;19.40;99.90;;;;;;4987426;28;20375;-80
2021/11/19 02:17:52;;;;;;;1.52;0.70;;;19.40;99.90;;;;;;4990050;28;20034;-79
2021/11/19 02:20:33;;;;;;;0.80;0.80;;;19.40;99.90;;;;;;4989376;28;20069;-78
2021/11/19 02:23:09;;;;;;;0.93;0.70;;;19.40;99.90;;;;;;4989721;28;20051;-78
2021/11/19 02:25:41;;;;;;;0.77;0.70;;;19.40;99.90;;;;;;4989708;28;20376;-80
2021/11/19 02:28:12;;;;;;;0.70;0.70;;;19.30;99.90;;;;;;4990322;28;20054;-84
2021/11/19 02:30:54;;;;;;;0.80;0.80;;;19.40;99.90;;;;;;4990370;28;20122;-80
2021/11/19 02:33:21;;;;;;;1.83;0.73;;;19.40;99.90;;;;;;4988392;28;20071;-81
2021/11/19 02:35:52;;;;;;;1.27;0.90;;;19.30;99.90;;;;;;4992903;28;20089;-81
2021/11/19 02:38:20;;;;;;;1.10;0.95;;;19.40;99.90;;;;;;4993765;28;20077;-80
2021/11/19 02:40:50;;;;;;;3.10;0.70;;;19.30;99.90;;;;;;4994349;28;20434;-81
2021/11/19 02:43:39;;;;;;;0.43;0.43;;;19.30;99.90;;;;;;4993156;28;20100;-86
2021/11/19 02:46:05;;;;;;;0.60;0.60;;;19.30;99.90;;;;;;4990102;28;20058;-80
2021/11/19 02:48:33;;;;;;;1.15;0.85;;;19.40;99.90;;;;;;4993558;28;20077;-84
2021/11/19 02:51:03;;;;;;;1.58;0.65;;;19.30;99.90;;;;;;4994365;28;20050;-80
2021/11/19 02:53:28;;;;;;;0.90;0.63;;;19.30;99.90;;;;;;4993126;28;20049;-80
2021/11/19 02:55:57;;;;;;;0.73;0.70;;;19.30;99.90;;;;;;4993643;28;20050;-80
2021/11/19 02:58:27;;;;;;;1.50;0.80;;;19.30;99.90;;;;;;4993020;28;20858;-81
2021/11/19 03:01:18;;;;;;;1.02;0.50;;;19.30;99.90;;;;;;4983801;28;20054;-79
2021/11/19 03:03:48;;;;;;;0.70;0.70;;;19.30;99.90;;;;;;4993533;28;20050;-82
2021/11/19 03:06:14;;;;;;;0.50;0.50;;;19.30;99.90;;;;;;4993815;28;20041;-79
2021/11/19 03:08:41;;;;;;;1.00;0.68;;;19.30;99.90;;;;;;4992967;28;20487;-80
2021/11/19 03:11:08;;;;;;;2.30;0.88;;;19.30;99.90;;;;;;5011365;28;20045;-79
2021/11/19 03:13:36;;;;;;;1.90;0.80;;;19.30;99.90;;;;;;4995444;28;20058;-80
2021/11/19 03:16:04;;;;;;;1.95;0.88;;;19.30;99.90;;;;;;4982927;28;20038;-79
2021/11/19 03:18:30;;;;;;;1.58;0.82;;;19.30;99.90;;;;;;5012779;28;20118;-80
2021/11/19 03:21:01;;;;;;;0.82;0.63;;;19.30;99.90;;;;;;4995669;28;20480;-80
2021/11/19 03:23:29;;;;;;;0.85;0.65;;;19.30;99.90;;;;;;5012868;28;20046;-80
2021/11/19 03:25:55;;;;;;;1.05;0.65;;;19.30;99.90;;;;;;5001728;28;20382;-82
2021/11/19 03:28:24;;;;;;;0.50;0.50;;;19.30;99.90;;;;;;5005559;28;20050;-80
2021/11/19 03:30:53;;;;;;;1.17;0.90;;;19.30;99.90;;;;;;5006526;28;20402;-80
2021/11/19 03:33:21;;;;;;;0.82;0.60;;;19.30;99.90;;;;;;4985721;28;20041;-87
2021/11/19 03:35:48;;;;;;;0.63;0.63;;;19.30;99.90;;;;;;5004400;28;20035;-83
2021/11/19 03:38:14;;;;;;;0.40;0.40;;;19.30;99.90;;;;;;4993911;28;20057;-80
2021/11/19 03:40:43;;;;;;;1.13;0.60;;;19.30;99.90;;;;;;5012221;28;20104;-81
2021/11/19 03:43:13;;;;;;;2.72;0.77;;;19.20;99.90;;;;;;5012744;28;20081;-81
2021/11/19 03:45:44;;;;;;;0.70;0.57;;;19.30;99.90;;;;;;5009646;28;20049;-80
2021/11/19 03:48:11;;;;;;;0.52;0.52;;;19.30;99.90;;;;;;5009152;28;20054;-80
2021/11/19 03:50:44;;;;;;;1.58;0.70;;;19.20;99.90;;;;;;5010993;28;20046;-81
2021/11/19 03:53:12;;;;;;;1.70;0.93;;;19.30;99.90;;;;;;5012531;28;20498;-80
2021/11/19 03:55:43;;;;;;;0.60;0.57;;;19.20;99.90;;;;;;4994428;28;20053;-80
2021/11/19 03:58:09;;;;;;;0.90;0.75;;;19.20;99.90;;;;;;5008572;28;20056;-80
2021/11/19 04:00:40;;;;;;;1.35;0.80;;;19.20;99.90;;;;;;5011831;28;20082;-81
2021/11/19 04:03:08;;;;;;;0.90;0.50;;;19.20;99.90;;;;;;5006500;28;20124;-80
2021/11/19 04:05:34;;;;;;;0.60;0.60;;;19.20;99.90;;;;;;5011577;28;20041;-80
2021/11/19 04:08:00;;;;;;;0.90;0.80;;;19.20;99.90;;;;;;4998019;28;20066;-80
2021/11/19 04:10:26;;;;;;;0.50;0.47;;;19.20;99.90;;;;;;5009338;28;20555;-80
2021/11/19 04:12:52;;;;;;;0.75;0.50;;;19.20;99.90;;;;;;5012118;28;20053;-79
2021/11/19 04:15:22;;;;;;;0.77;0.60;;;19.20;99.90;;;;;;5011832;28;20406;-80
2021/11/19 04:17:48;;;;;;;;;;;19.20;99.90;;;;;;5007373;28;20501;-80
2021/11/19 04:20:14;;;;;;;0.98;0.50;;;19.20;99.90;;;;;;5012279;28;19922;-79
2021/11/19 04:22:42;;;;;;;0.82;0.63;;;19.20;99.90;;;;;;5011255;28;20060;-80
2021/11/19 04:25:10;;;;;;;0.68;0.65;;;19.20;99.90;;;;;;5012045;28;20147;-79
2021/11/19 04:27:37;;;;;;;1.50;0.65;;;19.20;99.90;;;;;;5008601;28;20081;-80
2021/11/19 04:30:05;;;;;;;0.68;0.68;;;19.20;99.90;;;;;;4999086;28;20131;-82
2021/11/19 04:32:31;;;;;;;0.95;0.60;;;19.20;99.90;;;;;;5010281;28;20053;-82
2021/11/19 04:34:57;;;;;;;0.93;0.73;;;19.20;99.90;;;;;;5011899;28;20042;-80
2021/11/19 04:37:24;;;;;;;0.90;0.63;;;19.20;99.90;;;;;;5011766;28;20050;-79
2021/11/19 04:39:50;;;;;;;0.75;0.60;;;19.20;99.90;;;;;;5000038;28;20088;-81
2021/11/19 04:42:17;;;;;;;0.75;0.70;;;19.20;99.90;;;;;;5011856;28;20046;-80
2021/11/19 04:44:43;;;;;;;2.78;0.80;;;19.20;99.90;;;;;;5011046;28;20046;-80
2021/11/19 04:47:09;;;;;;;2.55;0.73;;;19.20;99.90;;;;;;5011596;28;20073;-81
2021/11/19 04:49:35;;;;;;;1.45;0.68;;;19.20;99.90;;;;;;4995952;28;20046;-80
2021/11/19 04:52:02;;;;;;;1.55;0.90;;;19.20;99.90;;;;;;5005709;28;20541;-81
2021/11/19 04:54:28;;;;;;;1.85;0.50;;;19.20;99.90;;;;;;5011378;28;20045;-86
2021/11/19 04:56:54;;;;;;;0.47;0.47;;;19.20;99.90;;;;;;4993208;28;20580;-81
2021/11/19 04:59:22;;;;;;;1.33;0.73;;;19.20;99.90;;;;;;5008267;28;20125;-80
2021/11/19 05:01:56;;;;;;;1.05;0.65;;;19.20;99.90;;;;;;4995807;28;20290;-81
2021/11/19 05:04:22;;;;;;;1.27;0.70;;;19.20;99.90;;;;;;5011462;28;20044;-80
2021/11/19 05:06:49;;;;;;;1.50;0.77;;;19.20;99.90;;;;;;5010257;28;20062;-81
2021/11/19 05:09:15;;;;;;;0.60;0.52;;;19.10;99.90;;;;;;5011174;28;20053;-80
2021/11/19 05:11:47;;;;;;;1.75;0.75;;;19.20;99.90;;;;;;5004371;28;20107;-80
2021/11/19 05:14:15;;;;;;;1.75;0.70;;;19.10;99.90;;;;;;5008408;28;20054;-81
2021/11/19 05:16:41;;;;;;;0.88;0.60;;;19.10;99.90;;;;;;4999449;28;20493;-81
2021/11/19 05:19:07;;;;;;;0.85;0.60;;;19.10;99.90;;;;;;5010943;28;20054;-80
2021/11/19 05:21:33;;;;;;;1.95;0.70;;;19.10;99.90;;;;;;5005726;28;20087;-80
2021/11/19 05:24:00;;;;;;;0.88;0.60;;;19.10;99.90;;;;;;5011140;28;20770;-80
2021/11/19 05:26:28;;;;;;;1.40;0.73;;;19.10;99.90;;;;;;5010761;28;20046;-80
2021/11/19 05:28:55;;;;;;;0.90;0.70;;;19.10;99.90;;;;;;4993027;28;20050;-80
2021/11/19 05:31:21;;;;;;;1.13;0.70;;;19.10;99.90;;;;;;5009375;28;20089;-81
2021/11/19 05:33:47;;;;;;;1.52;0.73;;;19.10;99.90;;;;;;5010302;28;20058;-80
2021/11/19 05:36:14;;;;;;;0.82;0.60;;;19.10;99.90;;;;;;5006713;28;20049;-80
2021/11/19 05:38:41;;;;;;;1.05;0.50;;;19.10;99.90;;;;;;5009981;28;20129;-82
2021/11/19 05:41:10;;;;;;;0.45;0.43;;;19.10;99.90;;;;;;5010779;28;20046;-81
2021/11/19 05:43:38;;;;;;;0.57;0.55;;;19.10;99.90;;;;;;4997033;28;20430;-81
2021/11/19 05:46:06;;;;;;;0.77;0.70;;;19.10;99.90;;;;;;4993253;28;20046;-81
2021/11/19 05:48:31;;;;;;;0.80;0.70;;;19.10;99.90;;;;;;5010335;28;20130;-86
2021/11/19 05:50:58;;;;;;;1.38;0.90;;;19.10;99.90;;;;;;5010141;28;20124;-80
2021/11/19 05:53:23;;;;;;;1.02;0.73;;;19.10;99.90;;;;;;4997723;28;20038;-80
2021/11/19 05:55:49;;;;;;;1.98;0.70;;;19.10;99.90;;;;;;5008725;28;20037;-80
2021/11/19 05:58:16;;;;;;;0.90;0.50;;;19.10;99.90;;;;;;5010251;28;20099;-79
2021/11/19 06:00:45;;;;;;;1.60;0.90;;;19.10;99.90;;;;;;5007723;28;20449;-82
2021/11/19 06:03:11;;;;;;;0.52;0.52;;;19.10;99.90;;;;;;4998801;28;20350;-83
2021/11/19 06:05:38;;;;;;;0.68;0.60;;;19.10;99.90;;;;;;5008643;28;20099;-81
2021/11/19 06:08:06;;;;;;;0.60;0.60;;;19.10;99.90;;;;;;5010238;28;20073;-81
2021/11/19 06:10:34;;;;;;;0.77;0.60;;;19.10;99.90;;;;;;5009149;28;20115;-82
2021/11/19 06:13:07;;;;;;;0.77;0.60;;;19.10;99.90;;;;;;4998538;28;20058;-83
2021/11/19 06:15:38;;;;;;;0.60;0.60;;;19.10;99.90;;;;;;5009847;28;20042;-81
2021/11/19 06:18:10;;;;;;;0.50;0.50;;;19.10;99.90;;;;;;5010197;28;20512;-82
2021/11/19 06:20:43;;;;;;;0.47;0.47;;;19.10;99.90;;;;;;5009977;28;20046;-86
2021/11/19 06:23:11;;;;;;;1.17;0.63;;;19.00;99.90;;;;;;5001615;28;20117;-81
2021/11/19 06:25:38;;;;;;;0.70;0.63;;;19.00;99.90;;;;;;5008783;28;20054;-87
2021/11/19 06:28:07;;;;;;;1.50;0.60;;;19.00;99.90;;;;;;5009782;28;20041;-80
2021/11/19 06:30:34;;;;;;;0.50;0.50;;;19.00;99.90;;;;;;5010079;28;20383;-80
2021/11/19 06:33:00;;;;;;;0.50;0.50;;;19.00;99.90;;;;;;4984910;28;20128;-82
2021/11/19 06:35:26;;;;;;;0.88;0.80;;;19.00;99.90;;;;;;5008798;28;20121;-81
2021/11/19 06:37:52;;;;;;;1.15;0.60;;;19.00;99.90;;;;;;5009401;28;20056;-81
2021/11/19 06:40:23;;;;;;;1.10;0.65;;;19.00;99.90;;;;;;5010132;28;20045;-80
2021/11/19 06:42:48;;;;;;;0.50;0.45;;;19.00;99.90;;;;;;5006968;28;20121;-81
2021/11/19 06:45:16;;;;;;;1.75;0.60;;;19.00;99.90;;;;;;4996014;28;20192;-82
2021/11/19 06:47:43;;;;;;;0.50;0.50;;;19.10;99.90;;;;;;4989683;28;20042;-82
2021/11/19 06:50:12;;;;;;;1.00;0.55;;;19.10;99.90;;;;;;4990741;28;20061;-82
2021/11/19 06:52:38;;;;;;;0.75;0.55;;;19.10;99.90;;;;;;4988765;28;20058;-81
2021/11/19 06:55:06;;;;;;;0.50;0.50;;;19.10;99.90;;;;;;4989216;28;20054;-83
2021/11/19 06:57:33;;;;;;;0.47;0.47;;;19.10;99.90;;;;;;4990222;28;20069;-81
2021/11/19 06:59:59;;;;;;;1.05;0.52;;;19.10;99.90;;;;;;4989320;28;20849;-80
2021/11/19 07:02:25;;;;;;;1.48;0.60;;;19.10;99.90;;;;;;4990522;28;20050;-81
2021/11/19 07:04:50;;;;;;;1.15;0.70;;;19.20;99.90;;;;;;4987857;28;20125;-81
2021/11/19 07:07:16;;;;;;;0.60;0.50;;;19.20;99.90;;;;;;4972387;28;20062;-82
2021/11/19 07:09:42;;;;;;;0.73;0.73;;;19.20;99.90;;;;;;4997072;28;20165;-86
2021/11/19 07:12:11;;;;;;;1.05;0.57;;;19.20;99.90;;;;;;4992051;28;20057;-84
2021/11/19 07:14:38;;;;;;;0.50;0.50;;;19.20;99.90;;;;;;5003750;28;20060;-81
2021/11/19 07:17:07;;;;;;;0.70;0.50;;;19.30;99.90;;;;;;5001388;28;20104;-82
2021/11/19 07:19:34;;;;;;;0.70;0.52;;;19.30;99.90;;;;;;4992131;28;20434;-81
2021/11/19 07:21:59;;;;;;;0.63;0.57;;;19.30;99.90;;;;;;5011778;28;20045;-80
2021/11/19 07:24:26;;;;;;;0.88;0.60;;;19.30;99.90;;;;;;5012369;28;20060;-81
2021/11/19 07:26:52;;;;;;;0.73;0.50;;;19.30;99.90;;;;;;4999287;28;20089;-85
2021/11/19 07:29:18;;;;;;;1.38;0.60;;;19.30;99.90;;;;;;4995555;28;20427;-81
2021/11/19 07:31:44;;;;;;;0.75;0.57;;;19.40;99.90;;;;;;5011649;28;20049;-87
2021/11/19 07:34:10;;;;;;;0.63;0.60;;;19.40;99.90;;;;;;5013030;28;20161;-80
2021/11/19 07:36:36;;;;;;;0.50;0.50;;;19.40;99.90;;;;;;4981960;28;20073;-83
2021/11/19 07:39:04;;;;;;;0.73;0.57;;;19.40;99.90;;;;;;5002617;28;20064;-81
2021/11/19 07:41:30;;;;;;;0.50;0.50;;;19.40;99.90;;;;;;5012692;28;20058;-80
2021/11/19 07:43:56;;;;;;;0.50;0.40;;;19.40;99.90;;;;;;5012264;28;20045;-83
2021/11/19 07:46:25;;;;;;;1.17;0.57;;;19.40;99.90;;;;;;5005606;28;20117;-80
2021/11/19 07:48:52;;;;;;;0.40;0.30;;;19.40;99.90;;;;;;5012213;28;20048;-81
2021/11/19 07:51:24;;;;;;;0.63;0.60;;;19.50;99.90;;;;;;5012626;28;20053;-85
2021/11/19 07:53:51;;;;;;;0.60;0.47;;;19.50;99.90;;;;;;4987167;28;20089;-81
2021/11/19 07:56:19;;;;;;;0.77;0.77;;;19.50;99.90;;;;;;5009037;28;20082;-81
2021/11/19 07:58:46;;;;;;;1.50;0.60;;;19.50;99.90;;;;;;5011787;28;20108;-86
2021/11/19 08:01:14;;;;;;;0.60;0.47;;;19.50;99.90;;;;;;5003309;28;20050;-81
2021/11/19 08:03:42;;;;;;;0.40;0.40;;;19.50;99.90;;;;;;4995075;28;20121;-82
2021/11/19 08:06:08;;;;;;;0.90;0.65;;;19.50;99.90;;;;;;4991929;28;20109;-82
2021/11/19 08:08:36;;;;;;;0.60;0.60;;;19.50;99.90;;;;;;4992305;28;20433;-80
2021/11/19 08:11:06;;;;;;;1.90;0.80;;;19.50;99.90;;;;;;4984180;28;20074;-80
2021/11/19 08:13:32;;;;;;;;;;;19.50;99.90;;;;;;4993143;28;20136;-82
2021/11/19 08:15:58;;;;;;;1.50;0.60;;;19.50;99.90;;;;;;4991763;28;19961;-80
2021/11/19 08:18:31;;;;;;;0.82;0.55;;;19.50;99.90;;;;;;4991846;28;20046;-81
2021/11/19 08:21:01;;;;;;;1.55;0.47;;;19.50;99.90;;;;;;4991345;28;20050;-81
2021/11/19 08:23:42;;;;;;;1.10;0.47;;;19.50;99.90;;;;;;4988574;28;20042;-81
2021/11/19 08:26:21;;;;;;;0.80;0.40;;;19.50;99.90;;;;;;4990749;28;20030;-80
2021/11/19 08:28:48;;;;;;;0.50;0.50;;;19.50;99.90;;;;;;4990732;28;20042;-80
2021/11/19 08:31:19;;;;;;;1.30;0.65;;;19.50;99.90;;;;;;4990953;28;20294;-82
2021/11/19 08:33:45;;;;;;;0.52;0.40;;;19.50;99.90;;;;;;4988963;28;20077;-82
2021/11/19 08:36:12;;;;;;;0.43;0.43;;;19.50;99.90;;;;;;4989300;28;20796;-83
2021/11/19 08:38:41;;;;;;;0.55;0.50;;;19.50;99.90;;;;;;4980217;28;20057;-82
2021/11/19 08:41:08;;;;;;;0.93;0.55;;;19.50;99.90;;;;;;4982966;28;20086;-82
2021/11/19 08:43:37;;;;;;;0.50;0.50;;;19.50;99.90;;;;;;4988854;28;20050;-84
2021/11/19 08:46:06;;;;;;;0.43;0.43;;;19.50;99.90;;;;;;4986870;28;20967;-84
2021/11/19 08:48:34;;;;;;;0.60;0.60;;;19.50;99.90;;;;;;4987890;28;20434;-83
2021/11/19 08:51:02;;;;;;;0.65;0.45;;;19.50;99.90;;;;;;4987655;28;21083;-82
2021/11/19 08:53:28;;;;;;;0.85;0.60;;;19.50;99.90;;;;;;4986498;28;20148;-83
2021/11/19 08:55:57;;;;;;;1.05;0.60;;;19.50;99.90;;;;;;4988361;28;20471;-87
2021/11/19 08:58:31;;;;;;;0.70;0.30;;;19.50;99.90;;;;;;4985555;28;20439;-82
2021/11/19 09:00:59;;;;;;;0.30;0.30;;;19.50;99.90;;;;;;4970167;28;20053;-82
2021/11/19 09:03:26;;;;;;;0.40;0.38;;;19.50;99.90;;;;;;4986366;28;20045;-84
2021/11/19 09:05:52;;;;;;;0.55;0.50;;;19.50;99.90;;;;;;4988028;28;20038;-84
2021/11/19 09:08:22;;;;;;;0.85;0.50;;;19.50;99.90;;;;;;4987433;28;20089;-85
2021/11/19 09:10:48;;;;;;;;;;;19.50;99.90;;;;;;4994792;28;20051;-82
2021/11/19 09:13:15;;;;;;;0.68;0.40;;;19.50;99.90;;;;;;5001043;28;20003;-82
2021/11/19 09:15:41;;;;;;;0.65;0.60;;;19.60;99.90;;;;;;4982012;28;20042;-82
2021/11/19 09:18:17;;;;;;;2.40;0.50;;;19.50;99.90;;;;;;4998919;28;20367;-81
2021/11/19 09:21:07;;;;;;;0.75;0.40;;;19.50;99.90;;;;;;4990639;28;20100;-83
2021/11/19 09:23:37;;;;;;;0.82;0.55;;;19.50;99.90;;;;;;4990564;28;20057;-82
2021/11/19 09:26:11;;;;;;;0.50;0.50;;;19.50;99.90;;;;;;4986793;28;20109;-82
2021/11/19 09:28:40;;;;;;;0.35;0.35;;;19.50;99.90;;;;;;4990419;28;20068;-81
2021/11/19 09:31:07;;;;;;;0.85;0.40;;;19.50;99.90;;;;;;4989501;28;20054;-81
2021/11/19 09:33:35;;;;;;;0.40;0.40;;;19.50;99.90;;;;;;4988888;28;20042;-81
2021/11/19 09:36:01;;;;;;;0.85;0.63;;;19.50;99.90;;;;;;4988350;28;20502;-81
2021/11/19 09:38:29;;;;;;;1.67;0.57;;;19.50;99.90;;;;;;4972499;28;20068;-82
2021/11/19 09:41:36;;;;;;;1.35;0.68;;;19.50;99.90;;;;;;4990053;28;20402;-81
2021/11/19 09:44:30;;;;;;;0.35;0.35;;;19.50;99.90;;;;;;4974746;28;20124;-81
2021/11/19 09:47:01;;;;;;;0.82;0.60;;;19.50;99.90;;;;;;4970577;28;20050;-84
2021/11/19 09:50:01;;;;;;;0.93;0.73;;;19.50;99.90;;;;;;4989690;28;20038;-84
2021/11/19 09:52:51;;;;;;;0.43;0.43;;;19.50;99.90;;;;;;4985283;28;20089;-83
2021/11/19 09:55:47;;;;;;;0.85;0.68;;;19.50;99.90;;;;;;4988666;28;20046;-84
2021/11/19 09:58:46;;;;;;;2.05;1.13;;;19.50;99.90;;;;;;4969587;28;20046;-84
2021/11/19 10:01:20;;;;;;;3.33;1.15;;;19.50;99.90;;;;;;4989708;28;20545;-85
2021/11/19 10:04:18;;;;;;;3.83;0.70;;;19.50;99.90;;;;;;4989075;28;20165;-83
2021/11/19 10:07:20;;;;;;;1.60;0.80;;;19.50;99.90;;;;;;4972140;28;20142;-85
2021/11/19 10:10:07;;;;;;;1.42;0.63;;;19.50;99.90;;;;;;4972315;28;20050;-83
2021/11/19 10:13:01;;;;;;;1.73;0.70;;;19.50;99.90;;;;;;4974746;28;20050;-83
2021/11/19 10:15:54;;;;;;;2.78;0.90;;;19.50;99.90;;;;;;4983456;28;20066;-83
2021/11/19 10:18:43;;;;;;;1.58;0.90;;;19.50;99.90;;;;;;4982601;28;20274;-84
2021/11/19 10:21:10;;;;;;;1.23;0.50;;;19.50;99.90;;;;;;4906050;28;20058;-82
2021/11/19 10:23:48;;;;;;;1.73;0.68;;;19.50;99.90;;;;;;4975205;28;20053;-84
2021/11/19 10:26:26;;;;;;;1.27;0.60;;;19.50;99.90;;;;;;4975123;28;20154;-84
2021/11/19 10:29:26;;;;;;;2.13;0.75;;;19.50;99.90;;;;;;4988253;28;20347;-83
2021/11/19 10:31:53;;;;;;;1.75;0.60;;;19.50;99.90;;;;;;4983847;28;20394;-83
2021/11/19 10:34:56;;;;;;;2.50;0.93;;;19.50;99.90;;;;;;4982654;28;20046;-83
2021/11/19 10:38:06;;;;;;;1.38;0.70;;;19.50;99.90;;;;;;4986041;28;20038;-88
2021/11/19 10:41:09;;;;;;;1.98;0.70;;;19.50;99.90;;;;;;4966515;28;20261;-83
2021/11/19 10:43:41;;;;;;;1.20;0.73;;;19.50;99.90;;;;;;4984656;28;20054;-84
2021/11/19 10:46:39;;;;;;;1.05;0.70;;;19.50;99.90;;;;;;4983226;28;20112;-83
2021/11/19 10:49:20;;;;;;;0.98;0.52;;;19.50;99.90;;;;;;4985037;28;20050;-87
2021/11/19 10:52:07;;;;;;;1.70;0.82;;;19.50;99.90;;;;;;4968933;28;20042;-85
2021/11/19 10:55:00;;;;;;;1.08;0.70;;;19.50;99.90;;;;;;4966124;28;20108;-85
2021/11/19 10:57:57;;;;;;;1.73;0.70;;;19.50;99.90;;;;;;4989266;28;20042;-83
2021/11/19 11:00:22;;;;;;;1.40;0.73;;;19.50;99.90;;;;;;4975162;28;20077;-84
2021/11/19 11:02:51;;;;;;;2.45;0.70;;;19.50;99.90;;;;;;4992145;28;20495;-86
2021/11/19 11:05:40;;;;;;;1.85;0.70;;;19.50;99.90;;;;;;4975349;28;20046;-84
2021/11/19 11:08:12;;;;;;;;;;;19.50;99.90;;;;;;4991631;28;20046;-87
2021/11/19 11:11:00;;;;;;;1.70;0.70;;;19.60;99.90;;;;;;4979243;28;20005;-83
2021/11/19 11:13:38;;;;;;;1.95;1.15;;;19.50;99.90;;;;;;5001122;28;20041;-84
2021/11/19 11:16:10;;;;;;;3.22;0.50;;;19.50;99.90;;;;;;5007796;28;20072;-85
2021/11/19 11:18:45;;;;;;;0.50;0.43;;;19.50;99.90;;;;;;4991481;28;20250;-85
2021/11/19 11:21:34;;;;;;;1.30;0.60;;;19.50;99.90;;;;;;4970011;28;20042;-85
2021/11/19 11:24:23;;;;;;;2.40;0.90;;;19.50;99.90;;;;;;4990887;28;20568;-86
2021/11/19 11:27:11;;;;;;;1.30;0.55;;;19.50;99.90;;;;;;4978711;28;20811;-85
2021/11/19 11:30:12;;;;;;;3.38;0.88;;;19.50;99.90;;;;;;4982361;28;20066;-84
2021/11/19 11:32:49;;;;;;;5.13;0.80;;;19.50;99.90;;;;;;4975597;28;20058;-85
2021/11/19 11:35:30;;;;;;;1.85;0.80;;;19.50;99.90;;;;;;4974861;28;20046;-84
2021/11/19 11:38:15;;;;;;;4.60;0.95;;;19.60;99.90;;;;;;4992374;28;20103;-87
2021/11/19 11:40:56;;;;;;;2.70;0.82;;;19.60;99.90;;;;;;4991800;28;20054;-86
2021/11/19 11:43:33;;;;;;;1.08;0.40;;;19.50;99.90;;;;;;4991149;28;20073;-87
2021/11/19 11:46:44;;;;;;;1.05;0.70;;;19.60;99.90;;;;;;4975530;28;20125;-85
2021/11/19 11:49:45;;;;;;;4.65;1.00;;;19.60;99.90;;;;;;4979784;28;20065;-87
2021/11/19 11:52:29;;;;;;;2.90;0.80;;;19.50;99.90;;;;;;4989779;28;20046;-88
2021/11/19 11:55:27;;;;;;;7.82;0.82;;;19.60;99.90;;;;;;4975046;28;20050;-85
2021/11/19 11:57:53;;;;;;;5.18;0.88;;;19.60;99.90;;;;;;4966256;28;20455;-85
2021/11/19 12:00:41;;;;;;;0.82;0.73;;;19.60;99.90;;;;;;4990342;28;20080;-84
2021/11/19 12:03:35;;;;;;;3.17;1.30;;;19.60;99.90;;;;;;4986593;28;20073;-84
2021/11/19 12:06:10;;;;;;;5.38;1.35;;;19.60;99.90;;;;;;4990632;28;20057;-86
2021/11/19 12:09:02;;;;;;;4.28;1.27;;;19.60;99.90;;;;;;4972832;28;20092;-87
2021/11/19 12:11:55;;;;;;;2.22;1.33;;;19.60;99.90;;;;;;4979751;28;20081;-87
2021/11/19 12:14:42;;;;;;;4.00;1.00;;;19.60;99.90;;;;;;4962970;28;20054;-87
2021/11/19 12:17:39;;;;;;;1.92;1.02;;;19.60;99.90;;;;;;5004548;28;20108;-88
2021/11/19 12:20:11;;;;;;;2.33;1.15;;;19.60;99.90;;;;;;5008873;28;20054;-87
2021/11/19 12:22:45;;;;;;;2.40;1.10;;;19.60;99.90;;;;;;5006853;28;20413;-86
2021/11/19 12:25:48;;;;;;;3.80;1.17;;;19.60;99.90;;;;;;4991370;28;20482;-87
2021/11/19 12:28:26;;;;;;;2.70;1.48;;;19.60;99.90;;;;;;4990413;28;20038;-88
2021/11/19 12:31:26;;;;;;;1.45;1.00;;;19.60;99.90;;;;;;4996528;28;20050;-88
2021/11/19 12:34:03;;;;;;;2.22;1.15;;;19.60;99.90;;;;;;4983955;28;20050;-87
2021/11/19 12:36:36;;;;;;;2.42;1.35;;;19.60;99.90;;;;;;4987062;28;20038;-86
2021/11/19 12:39:06;;;;;;;3.10;1.50;;;19.60;99.90;;;;;;4992081;28;20046;-86
2021/11/19 12:41:53;;;;;;;2.53;1.17;;;19.60;99.90;;;;;;4974175;28;20443;-86
2021/11/19 12:44:36;;;;;;;3.40;1.10;;;19.60;99.90;;;;;;4989677;28;20042;-87
2021/11/19 12:47:05;;;;;;;3.42;2.22;;;19.60;99.90;;;;;;4992583;28;20045;-86
2021/11/19 12:49:55;;;;;;;5.63;1.23;;;19.60;99.90;;;;;;4991221;28;20035;-86
2021/11/19 12:52:30;;;;;;;1.20;1.00;;;19.60;99.90;;;;;;4968171;28;20487;-86
2021/11/19 12:55:11;;;;;;;2.85;0.88;;;19.60;99.90;;;;;;4970662;28;20454;-86
2021/11/19 12:57:56;;;;;;;1.30;0.82;;;19.60;99.90;;;;;;4989554;28;20687;-86
2021/11/19 13:00:37;;;;;;;1.85;0.80;;;19.50;99.90;;;;;;4990971;28;20038;-86
2021/11/19 13:03:34;;;;;;;2.03;0.90;;;19.50;99.90;;;;;;4958261;28;20053;-86
2021/11/19 13:06:26;;;;;;;1.92;0.93;;;19.50;99.90;;;;;;4985102;28;20081;-86
2021/11/19 13:09:06;;;;;;;2.28;0.77;;;19.50;99.90;;;;;;4992136;28;20153;-86
2021/11/19 13:11:41;;;;;;;1.45;0.85;;;19.50;99.90;;;;;;4986227;28;20085;-86
2021/11/19 13:14:27;;;;;;;1.58;0.70;;;19.50;99.90;;;;;;5003052;28;20042;-87
2021/11/19 13:17:04;;;;;;;1.38;0.77;;;19.50;99.90;;;;;;5006342;28;20125;-86
2021/11/19 13:19:32;;;;;;;2.28;0.80;;;19.50;99.90;;;;;;5008159;28;20069;-84